Latest Coastal Weather Observations for St Helens

IDT60701

Issued at 8:15 pm EST Tuesday 23 September 2014 (issued every 10 minutes, with the page automatically refreshed every 10 minutes)

About coastal observations | Map of coastal stations | Coastal observations for TAS | Marine services | Other Formats
Station Details ID: 092120 Name: ST HELENS AERODROME Lat: -41.34 Lon: 148.28 Height: 48.0 m
Data from the previous 72 hours. | See also: Recent months at St Helens
Date/Time
EST
Temp

°C
Wind Pressure Rain
since 9am
mm
Weather Cloud Vis
km
Sea
Height
m
Swell
Dir
 
Speed
knots
Gust
knots
hPa Trend Height
m
Period
s
Dir
23/08:00pm 14.8 NW 3 7 1021.3 - 0.0 - - - - - - -
23/07:30pm 15.8 W 5 8 1021.2 - 0.0 - - - - - - -
23/07:00pm 16.7 W 6 11 1021.2 - 0.0 - - - - - - -
23/06:30pm 17.5 W 7 15 1021.0 - 0.0 - - - - - - -
23/06:00pm 18.3 WSW 7 12 1021.0 - 0.0 - - - - - - -
23/05:30pm 19.4 WSW 8 15 1020.8 - 0.0 - - - - - - -
23/05:00pm 20.7 W 7 14 1020.8 - 0.0 - - - - - - -
23/04:30pm 21.3 W 8 15 1020.8 - 0.0 - - - - - - -
23/04:00pm 22.1 W 8 16 1020.9 - 0.0 - - - - - - -
23/03:30pm 22.6 WNW 8 15 1020.9 - 0.0 - - - - - - -
23/03:00pm 22.9 W 7 13 1021.1 - 0.0 - - - - - - -
23/02:30pm 23.0 WNW 8 14 1021.5 - 0.0 - - - - - - -
23/12:30pm 22.2 NW 8 13 1022.5 - 0.0 - - - - - - -
23/12:00pm 22.0 NW 8 15 1022.9 - 0.0 - - - - - - -
23/11:30am 21.6 NW 9 14 1023.1 - 0.0 - - - - - - -
23/11:00am 21.6 NW 8 15 1023.3 - 0.0 - - - - - - -
23/10:30am 20.8 W 7 13 1023.6 - 0.0 - - - - - - -
23/10:00am 20.0 WNW 7 13 1023.9 - 0.0 - - - - - - -
23/09:30am 17.7 NW 4 6 1024.1 - 0.0 - - - - - - -
23/09:00am 15.2 NW 4 5 1024.5 - 0.0 Fine Partly cloudy 30 - - - -
23/08:30am 12.1 WNW 3 5 1024.7 - 0.0 - - - - - - -
23/08:00am 10.3 W 3 6 1024.8 - 0.0 - - - - - - -
23/07:30am 8.0 NW 5 9 1024.9 - 0.0 - - - - - - -
23/07:00am 6.3 W 4 7 1024.8 - 0.0 - - - - - - -
23/06:30am 6.1 NNW 6 8 1024.8 - 0.0 - - - - - - -
23/06:00am 5.8 NW 7 9 1024.9 - 0.0 - - - - - - -
23/05:30am 5.7 NW 4 8 1024.7 - 0.0 - - - - - - -
23/05:00am 6.5 NW 5 8 1024.8 - 0.0 - - - - - - -
23/04:30am 7.0 WNW 4 7 1024.7 - 0.0 - - - - - - -
23/04:00am 6.4 NNW 6 9 1024.6 - 0.0 - - - - - - -
23/03:30am 6.8 NW 7 9 1024.6 - 0.0 - - - - - - -
23/03:00am 7.5 NW 7 9 1024.6 - 0.0 - - - - - - -
23/02:30am 8.3 NW 6 8 1024.6 - 0.0 - - - - - - -
23/02:00am 9.3 WNW 6 9 1024.6 - 0.0 - - - - - - -
23/01:30am 9.5 WNW 4 8 1024.9 - 0.0 - - - - - - -
23/01:00am 9.0 W 4 6 1025.2 - 0.0 - - - - - - -
23/12:30am 9.0 WNW 5 7 1025.2 - 0.0 - - - - - - -
23/12:00am 8.7 W 4 5 1025.3 - 0.0 - - - - - - -
 
Date/Time
EST
Temp

°C
Wind Pressure Rain
since 9am
mm
Weather Cloud Vis
km
Sea
Height
m
Swell
Dir
 
Speed
knots
Gust
knots
hPa Trend Height
m
Period
s
Dir
22/11:30pm 9.3 NNW 4 8 1024.9 - 0.0 - - - - - - -
22/11:00pm 9.5 NW 3 6 1025.0 - 0.0 - - - - - - -
22/10:30pm 9.6 W 2 5 1025.1 - 0.0 - - - - - - -
22/10:00pm 10.6 NNW 4 7 1025.2 - 0.0 - - - - - - -
22/09:30pm 11.1 N 5 6 1025.4 - 0.0 - - - - - - -
22/09:00pm 12.1 N 5 8 1025.3 - 0.0 - - - - - - -
22/08:30pm 12.3 NNW 6 9 1025.2 - 0.0 - - - - - - -
22/08:00pm 12.7 NW 6 11 1025.0 - 0.0 - - - - - - -
22/07:30pm 12.7 NW 10 14 1024.8 - 0.0 - - - - - - -
22/07:00pm 13.0 NW 8 12 1024.2 - 0.0 - - - - - - -
22/06:30pm 14.0 NNW 7 12 1024.0 - 0.0 - - - - - - -
22/06:00pm 15.3 NNW 7 12 1024.0 - 0.0 - - - - - - -
22/05:30pm 17.0 NW 7 11 1023.8 - 0.0 - - - - - - -
22/05:00pm 18.8 NW 7 12 1023.6 - 0.0 - - - - - - -
22/04:30pm 19.8 WNW 8 14 1023.4 - 0.0 - - - - - - -
22/04:00pm 20.8 NW 8 13 1023.4 - 0.0 - - - - - - -
22/03:30pm 21.5 NW 8 13 1023.6 - 0.0 - - - - - - -
22/03:00pm 21.4 WNW 8 14 1024.0 - 0.0 - - - - - - -
22/02:30pm 21.2 W 8 16 1024.1 - 0.0 - - - - - - -
22/02:00pm 21.5 W 7 14 1024.4 - 0.0 - - - - - - -
22/01:30pm 21.5 WSW 7 12 1024.7 - 0.0 - - - - - - -
22/01:00pm 21.7 NW 6 10 1025.0 - 0.0 - - - - - - -
22/12:30pm 20.1 N 10 15 1025.2 - 0.0 - - - - - - -
22/12:00pm 20.0 N 11 15 1025.7 - 0.0 - - - - - - -
22/11:30am 19.8 NNW 11 19 1026.0 - 0.0 - - - - - - -
22/11:00am 19.3 NNW 10 15 1026.6 - 0.0 - - - - - - -
22/10:30am 18.8 NW 10 18 1027.0 - 0.0 - - - - - - -
22/10:00am 17.9 WNW 6 12 1027.2 - 0.0 - - - - - - -
22/09:30am 15.6 NNW 5 7 1027.7 - 0.0 - - - - - - -
22/09:00am 12.5 NNW 1 4 1028.0 - 0.0 Fine Mostly clear 30 - - - -
22/08:30am 10.3 NW 2 5 1028.1 - 0.0 - - - - - - -
22/08:00am 9.3 NW 6 8 1028.2 - 0.0 - - - - - - -
22/07:30am 7.7 NNW 6 7 1028.2 - 0.0 - - - - - - -
22/07:00am 5.5 NNW 6 7 1028.1 - 0.0 - - - - - - -
22/06:30am 4.8 NNW 7 8 1028.1 - 0.0 - - - - - - -
22/06:00am 5.1 NNW 8 9 1028.1 - 0.0 - - - - - - -
22/05:30am 5.5 NW 7 8 1027.7 - 0.0 - - - - - - -
22/05:00am 5.6 NW 7 8 1027.6 - 0.0 - - - - - - -
22/04:30am 5.7 NNW 8 9 1027.4 - 0.0 - - - - - - -
22/04:00am 5.8 N 7 8 1027.2 - 0.0 - - - - - - -
22/03:30am 7.5 NW 5 7 1027.0 - 0.0 - - - - - - -
22/03:00am 6.5 NNW 6 7 1027.1 - 0.0 - - - - - - -
22/02:30am 7.2 NW 5 6 1027.2 - 0.0 - - - - - - -
22/02:00am 7.8 NNW 5 7 1027.3 - 0.0 - - - - - - -
22/01:30am 7.9 NW 5 6 1027.5 - 0.0 - - - - - - -
22/01:00am 8.2 NNW 5 6 1027.8 - 0.0 - - - - - - -
22/12:30am 8.7 NNW 7 8 1027.8 - 0.0 - - - - - - -
22/12:00am 8.5 NNW 7 8 1027.8 - 0.0 - - - - - - -
 
Date/Time
EST
Temp

°C
Wind Pressure Rain
since 9am
mm
Weather Cloud Vis
km
Sea
Height
m
Swell
Dir
 
Speed
knots
Gust
knots
hPa Trend Height
m
Period
s
Dir
21/11:30pm 8.8 N 8 9 1027.7 - 0.0 - - - - - - -
21/11:00pm 9.4 N 5 8 1027.7 - 0.0 - - - - - - -
21/10:30pm 9.8 NNW 6 9 1027.6 - 0.0 - - - - - - -
21/10:00pm 10.4 NW 6 9 1027.7 - 0.0 - - - - - - -
21/09:30pm 11.2 NNW 5 7 1027.8 - 0.0 - - - - - - -
21/09:00pm 11.9 NNW 7 8 1027.7 - 0.0 - - - - - - -
21/08:30pm 12.1 NNW 5 6 1027.4 - 0.0 - - - - - - -
21/08:00pm 12.9 NNW 5 8 1027.4 - 0.0 - - - - - - -
21/07:30pm 13.4 NW 5 7 1027.2 - 0.0 - - - - - - -
21/07:00pm 13.9 WNW 4 8 1026.9 - 0.0 - - - - - - -
21/06:30pm 14.5 NW 4 6 1026.6 - 0.0 - - - - - - -
21/06:00pm 15.6 NNW 3 5 1026.4 - 0.0 - - - - - - -
21/05:30pm 16.9 N 3 5 1026.1 - 0.0 - - - - - - -
21/05:00pm 17.6 N 6 9 1026.0 - 0.0 - - - - - - -
21/04:30pm 17.4 NNE 7 10 1025.9 - 0.0 - - - - - - -
21/04:00pm 18.0 NNE 7 10 1025.8 - 0.0 - - - - - - -
21/03:30pm 17.3 NE 9 13 1025.9 - 0.0 - - - - - - -
21/03:00pm 17.7 NE 10 13 1026.1 - 0.0 - - - - - - -
21/02:30pm 18.1 NE 8 11 1026.0 - 0.0 - - - - - - -
21/02:00pm 17.7 NNE 9 11 1026.0 - 0.0 - - - - - - -
21/01:30pm 16.9 NNE 9 13 1025.9 - 0.0 - - - - - - -
21/01:00pm 17.3 NNE 9 12 1026.0 - 0.0 - - - - - - -
21/12:30pm 17.1 NNE 8 11 1026.0 - 0.0 - - - - - - -
21/12:00pm 17.0 N 7 9 1026.5 - 0.0 - - - - - - -
21/11:30am 16.7 N 5 7 1026.8 - 0.0 - - - - - - -
21/11:00am 15.7 N 4 6 1027.1 - 0.0 - - - - - - -
21/10:30am 15.2 WNW 4 7 1027.2 - 0.0 - - - - - - -
21/10:00am 14.1 WNW 3 6 1027.4 - 0.0 - - - - - - -
21/09:30am 11.9 NNW 5 7 1027.4 - 0.0 - - - - - - -
21/09:00am 10.2 N 2 5 1027.7 - 0.0 Fine Partly cloudy 30 - - - -
21/08:30am 8.8 N 2 4 1027.4 - 0.0 - - - - - - -
21/08:00am 7.3 NW 5 6 1027.4 - 0.0 - - - - - - -
21/07:30am 6.4 NE 4 5 1027.3 - 0.0 - - - - - - -
21/07:00am 5.3 N 3 7 1027.1 - 0.0 - - - - - - -
21/06:30am 5.7 NW 5 7 1027.0 - 0.0 - - - - - - -
21/06:00am 4.3 NNW 5 6 1026.6 - 0.0 - - - - - - -
21/05:30am 4.1 NNW 6 8 1026.1 - 0.0 - - - - - - -
21/05:00am 4.1 NW 5 7 1026.1 - 0.0 - - - - - - -
21/04:30am 4.3 NW 5 7 1026.1 - 0.0 - - - - - - -
21/04:00am 4.6 N 5 6 1025.9 - 0.0 - - - - - - -
21/03:30am 5.4 NW 6 8 1025.5 - 0.0 - - - - - - -
21/03:00am 5.6 NNW 5 7 1025.5 - 0.0 - - - - - - -
21/02:30am 5.7 NW 5 6 1025.3 - 0.0 - - - - - - -
21/02:00am 6.1 WNW 4 7 1025.5 - 0.0 - - - - - - -
21/01:30am 5.9 NNW 5 7 1025.8 - 0.0 - - - - - - -
21/01:00am 5.6 NNW 4 6 1025.9 - 0.0 - - - - - - -
21/12:30am 6.5 SSW 3 4 1026.1 - 0.0 - - - - - - -
21/12:00am 7.1 S 3 5 1025.9 - 0.0 - - - - - - -
 
Date/Time
EST
Temp

°C
Wind Pressure Rain
since 9am
mm
Weather Cloud Vis
km
Sea
Height
m
Swell
Dir
 
Speed
knots
Gust
knots
hPa Trend Height
m
Period
s
Dir
20/11:30pm 7.0 WNW 1 3 1025.8 - 0.0 - - - - - - -
20/11:00pm 6.9 WNW 3 5 1025.8 - 0.0 - - - - - - -
20/10:30pm 7.1 NW 5 7 1025.9 - 0.0 - - - - - - -
20/10:00pm 8.2 S 2 5 1025.7 - 0.0 - - - - - - -
20/09:30pm 7.8 NW 3 4 1025.7 - 0.0 - - - - - - -
20/09:00pm 7.8 CALM 0 0 1025.4 - 0.0 - - - - - - -
20/08:30pm 7.9 NW 4 5 1025.2 - 0.0 - - - - - - -

Other Formats:

Comma delimited format used in spreadsheet applications
http://www.bom.gov.au/fwo/IDT60701/IDT60701.95981.axf

JavaScript Object Notation format (JSON) in row-major order
http://www.bom.gov.au/fwo/IDT60701/IDT60701.95981.json